Time;durP1;ratioP1;P1;durP2;ratioP2;P2;SDS_P1;SDS_P2;PMS_P1;PMS_P2;Temp;Humidity;BMP_temperature;BMP_pressure;BME280_temperature;BME280_humidity;BME280_pressure;Samples;Min_cycle;Max_cycle;Signal;HPM_P1;HPM_P2
2023/09/02 00:00:34;;;;;;;14.10;12.60;;;;;;;;;;5089223;28;20044;-77
2023/09/02 00:03:00;;;;;;;12.50;10.77;;;;;;;;;;5112018;28;21844;-77
2023/09/02 00:05:26;;;;;;;11.52;10.38;;;;;;;;;;5099260;28;20082;-77
2023/09/02 00:07:52;;;;;;;11.27;10.07;;;;;;;;;;5108581;28;20108;-78
2023/09/02 00:10:19;;;;;;;12.23;10.93;;;;;;;;;;5108472;28;20055;-77
2023/09/02 00:12:45;;;;;;;17.10;11.60;;;;;;;;;;5104451;28;20044;-77
2023/09/02 00:15:11;;;;;;;13.00;11.77;;;;;;;;;;5092554;28;20394;-78
2023/09/02 00:17:37;;;;;;;17.73;15.82;;;;;;;;;;5104999;28;20043;-78
2023/09/02 00:20:05;;;;;;;16.23;14.63;;;;;;;;;;5112708;28;20051;-77
2023/09/02 00:22:32;;;;;;;14.27;12.95;;;;;;;;;;5100827;28;20089;-77
2023/09/02 00:24:58;;;;;;;14.65;13.15;;;;;;;;;;5112461;28;20071;-77
2023/09/02 00:27:25;;;;;;;16.27;13.73;;;;;;;;;;5100966;28;20086;-77
2023/09/02 00:29:51;;;;;;;14.88;13.38;;;;;;;;;;5110706;28;20043;-77
2023/09/02 00:32:17;;;;;;;14.48;12.98;;;;;;;;;;5113218;28;20051;-77
2023/09/02 00:34:43;;;;;;;13.65;12.27;;;;;;;;;;5112881;28;20043;-78
2023/09/02 00:37:09;;;;;;;12.85;11.55;;;;;;;;;;5091322;28;20474;-77
2023/09/02 00:39:35;;;;;;;12.48;11.25;;;;;;;;;;5094463;28;20044;-77
2023/09/02 00:42:02;;;;;;;14.82;11.27;;;;;;;;;;5103297;28;20105;-78
2023/09/02 00:44:28;;;;;;;14.57;11.95;;;;;;;;;;5112713;28;20040;-78
2023/09/02 00:46:58;;;;;;;12.68;11.38;;;;;;;;;;5109939;28;20481;-78
2023/09/02 00:49:24;;;;;;;15.75;12.10;;;;;;;;;;5083873;28;20043;-77
2023/09/02 00:51:50;;;;;;;15.60;12.63;;;;;;;;;;5113621;28;20039;-77
2023/09/02 00:54:16;;;;;;;15.20;12.95;;;;;;;;;;5111357;28;20068;-77
2023/09/02 00:56:42;;;;;;;12.68;11.38;;;;;;;;;;5113301;28;20092;-78
2023/09/02 00:59:09;;;;;;;13.80;12.40;;;;;;;;;;5104022;28;20485;-78
2023/09/02 01:01:35;;;;;;;12.10;10.82;;;;;;;;;;5095675;28;20390;-78
2023/09/02 01:04:04;;;;;;;12.23;10.82;;;;;;;;;;5108709;28;22148;-77
2023/09/02 01:06:31;;;;;;;12.90;11.15;;;;;;;;;;5113104;28;20091;-77
2023/09/02 01:08:57;;;;;;;10.88;9.77;;;;;;;;;;5112854;28;20083;-77
2023/09/02 01:11:23;;;;;;;11.50;10.32;;;;;;;;;;5107828;28;20123;-77
2023/09/02 01:13:51;;;;;;;11.30;8.63;;;;;;;;;;5100390;28;20043;-77
2023/09/02 01:16:17;;;;;;;10.45;8.50;;;;;;;;;;5109875;28;20083;-77
2023/09/02 01:18:43;;;;;;;10.20;9.15;;;;;;;;;;5111014;28;20050;-77
2023/09/02 01:21:18;;;;;;;11.73;9.48;;;;;;;;;;5100572;28;20105;-78
2023/09/02 01:24:03;;;;;;;12.00;9.25;;;;;;;;;;5093377;28;20387;-77
2023/09/02 01:26:47;;;;;;;10.23;8.43;;;;;;;;;;5108281;28;20066;-78
2023/09/02 01:29:15;;;;;;;9.00;7.43;;;;;;;;;;5095782;28;20044;-78
2023/09/02 01:31:41;;;;;;;8.65;7.18;;;;;;;;;;5111869;28;20043;-78
2023/09/02 01:34:11;;;;;;;9.68;7.60;;;;;;;;;;5098225;28;20069;-77
2023/09/02 01:36:38;;;;;;;9.43;8.25;;;;;;;;;;5094278;28;20086;-78
2023/09/02 01:39:05;;;;;;;9.75;8.48;;;;;;;;;;5109058;28;20050;-77
2023/09/02 01:41:32;;;;;;;11.82;8.18;;;;;;;;;;5112508;28;20044;-77
2023/09/02 01:43:59;;;;;;;11.05;9.27;;;;;;;;;;5113127;28;20035;-77
2023/09/02 01:46:25;;;;;;;11.20;9.55;;;;;;;;;;5111410;28;20035;-77
2023/09/02 01:48:51;;;;;;;13.18;10.25;;;;;;;;;;5112257;28;20401;-78
2023/09/02 01:51:17;;;;;;;12.07;10.35;;;;;;;;;;5112379;28;20043;-78
2023/09/02 01:53:44;;;;;;;7.05;5.95;;;;;;;;;;5112331;28;20044;-78
2023/09/02 01:56:10;;;;;;;6.88;5.78;;;;;;;;;;5112562;28;20040;-78
2023/09/02 01:58:36;;;;;;;6.95;6.00;;;;;;;;;;5112290;28;20051;-77
2023/09/02 02:01:02;;;;;;;6.35;5.65;;;;;;;;;;5110251;28;20046;-78
2023/09/02 02:03:31;;;;;;;7.47;5.50;;;;;;;;;;5106440;28;20032;-78
2023/09/02 02:05:59;;;;;;;6.32;5.25;;;;;;;;;;5111037;28;20035;-77
2023/09/02 02:08:28;;;;;;;6.47;5.00;;;;;;;;;;5059064;28;20472;-77
2023/09/02 02:10:56;;;;;;;7.85;5.63;;;;;;;;;;5081097;28;20036;-77
2023/09/02 02:13:22;;;;;;;6.85;5.72;;;;;;;;;;5086905;28;20162;-77
2023/09/02 02:15:48;;;;;;;10.23;8.27;;;;;;;;;;5093003;28;20486;-78
2023/09/02 02:18:15;;;;;;;9.77;7.70;;;;;;;;;;5090349;28;20048;-78
2023/09/02 02:20:55;;;;;;;9.05;7.07;;;;;;;;;;5091037;28;20535;-77
2023/09/02 02:23:21;;;;;;;9.80;7.13;;;;;;;;;;5083702;28;20044;-77
2023/09/02 02:25:47;;;;;;;16.60;6.90;;;;;;;;;;5091034;28;20516;-77
2023/09/02 02:28:13;;;;;;;133.95;12.73;;;;;;;;;;5085373;28;20127;-77
2023/09/02 02:30:39;;;;;;;13.68;12.38;;;;;;;;;;5083029;28;20514;-77
2023/09/02 02:33:05;;;;;;;14.35;13.05;;;;;;;;;;5088695;28;20047;-77
2023/09/02 02:35:32;;;;;;;13.63;12.43;;;;;;;;;;5082553;28;20490;-77
2023/09/02 02:37:59;;;;;;;13.77;12.48;;;;;;;;;;5091911;28;20051;-77
2023/09/02 02:40:25;;;;;;;16.80;15.05;;;;;;;;;;5090297;28;20042;-77
2023/09/02 02:42:51;;;;;;;19.52;14.93;;;;;;;;;;5081397;28;20040;-77
2023/09/02 02:45:17;;;;;;;19.80;15.00;;;;;;;;;;5073298;28;20048;-77
2023/09/02 02:47:43;;;;;;;20.58;13.85;;;;;;;;;;5089761;28;20500;-77
2023/09/02 02:50:10;;;;;;;15.55;13.95;;;;;;;;;;5086551;28;20117;-77
2023/09/02 02:52:36;;;;;;;17.55;14.13;;;;;;;;;;5090960;28;20097;-77
2023/09/02 02:55:02;;;;;;;15.27;13.77;;;;;;;;;;5079017;28;20050;-77
2023/09/02 02:57:28;;;;;;;16.58;12.85;;;;;;;;;;5073915;28;20048;-77
2023/09/02 02:59:54;;;;;;;17.25;14.02;;;;;;;;;;5076465;28;20036;-77
2023/09/02 03:02:20;;;;;;;13.82;12.30;;;;;;;;;;5076634;28;20093;-77
2023/09/02 03:04:48;;;;;;;14.13;12.65;;;;;;;;;;5071659;28;20048;-77
2023/09/02 03:07:18;;;;;;;17.35;13.95;;;;;;;;;;5100607;28;20052;-77
2023/09/02 03:09:44;;;;;;;14.50;12.75;;;;;;;;;;5093902;28;20090;-77
2023/09/02 03:12:10;;;;;;;14.23;12.73;;;;;;;;;;5081124;28;20036;-77
2023/09/02 03:14:36;;;;;;;14.55;12.88;;;;;;;;;;5102550;28;20485;-78
2023/09/02 03:17:02;;;;;;;15.32;13.73;;;;;;;;;;5107680;28;20050;-78
2023/09/02 03:19:28;;;;;;;16.95;14.02;;;;;;;;;;5108291;28;20053;-77
2023/09/02 03:21:54;;;;;;;16.17;14.65;;;;;;;;;;5113549;28;20119;-77
2023/09/02 03:24:21;;;;;;;15.27;13.77;;;;;;;;;;5115279;28;20040;-77
2023/09/02 03:26:47;;;;;;;16.65;14.95;;;;;;;;;;5112665;28;20476;-77
2023/09/02 03:29:13;;;;;;;16.30;14.60;;;;;;;;;;5102001;28;20039;-77
2023/09/02 03:31:39;;;;;;;15.63;14.13;;;;;;;;;;5114282;28;20046;-78
2023/09/02 03:34:05;;;;;;;15.95;14.32;;;;;;;;;;5113791;28;20413;-77
2023/09/02 03:36:32;;;;;;;15.85;14.07;;;;;;;;;;5114551;28;20120;-77
2023/09/02 03:38:58;;;;;;;15.88;13.90;;;;;;;;;;5113824;28;20406;-77
2023/09/02 03:41:24;;;;;;;14.65;13.10;;;;;;;;;;5096848;28;20050;-78
2023/09/02 03:43:50;;;;;;;14.68;13.05;;;;;;;;;;5112984;28;20043;-77
2023/09/02 03:46:16;;;;;;;13.38;11.98;;;;;;;;;;5114992;28;20036;-77
2023/09/02 03:48:42;;;;;;;13.80;12.50;;;;;;;;;;5113791;28;20051;-77
2023/09/02 03:51:12;;;;;;;14.68;12.45;;;;;;;;;;5114765;28;20497;-77
2023/09/02 03:53:39;;;;;;;14.40;12.90;;;;;;;;;;5111849;28;20040;-77
2023/09/02 03:56:05;;;;;;;16.88;15.23;;;;;;;;;;5106748;28;20052;-77
2023/09/02 03:58:31;;;;;;;18.08;15.95;;;;;;;;;;5080313;28;20055;-77
2023/09/02 04:00:58;;;;;;;20.08;17.98;;;;;;;;;;5111334;28;20089;-77
2023/09/02 04:03:25;;;;;;;19.50;17.38;;;;;;;;;;5110110;28;20052;-77
2023/09/02 04:05:51;;;;;;;20.73;18.60;;;;;;;;;;5109099;28;20055;-77
2023/09/02 04:08:18;;;;;;;20.85;18.27;;;;;;;;;;5108835;28;20521;-77
2023/09/02 04:10:45;;;;;;;18.55;16.65;;;;;;;;;;5115630;28;20044;-77
2023/09/02 04:13:11;;;;;;;17.38;15.60;;;;;;;;;;5113853;28;20093;-77
2023/09/02 04:15:37;;;;;;;16.80;15.10;;;;;;;;;;5089146;28;20397;-77
2023/09/02 04:18:03;;;;;;;18.20;16.17;;;;;;;;;;5105379;28;20125;-77
2023/09/02 04:20:30;;;;;;;18.33;15.35;;;;;;;;;;5085225;28;20405;-77
2023/09/02 04:22:56;;;;;;;18.17;15.23;;;;;;;;;;5111383;28;20052;-77
2023/09/02 04:25:22;;;;;;;17.25;15.55;;;;;;;;;;5107514;28;20044;-77
2023/09/02 04:27:48;;;;;;;18.00;16.10;;;;;;;;;;5111038;28;20043;-77
2023/09/02 04:30:15;;;;;;;16.48;14.77;;;;;;;;;;5096030;28;20066;-77
2023/09/02 04:32:41;;;;;;;16.05;14.45;;;;;;;;;;5111906;28;20039;-77
2023/09/02 04:35:08;;;;;;;16.88;15.07;;;;;;;;;;5103529;28;20545;-77
2023/09/02 04:37:34;;;;;;;15.63;14.13;;;;;;;;;;5103405;28;20069;-77
2023/09/02 04:40:00;;;;;;;14.10;11.35;;;;;;;;;;5107363;28;20050;-77
2023/09/02 04:42:26;;;;;;;14.07;11.23;;;;;;;;;;5103732;28;20050;-78
2023/09/02 04:44:53;;;;;;;12.60;11.27;;;;;;;;;;5097178;28;20059;-77
2023/09/02 04:47:19;;;;;;;13.18;11.77;;;;;;;;;;5099444;28;20092;-77
2023/09/02 04:49:45;;;;;;;16.15;14.45;;;;;;;;;;5108590;28;20508;-77
2023/09/02 04:52:11;;;;;;;14.90;12.90;;;;;;;;;;5106753;28;20121;-77
2023/09/02 04:54:37;;;;;;;14.80;13.07;;;;;;;;;;5105327;28;20409;-77
2023/09/02 04:57:03;;;;;;;16.13;14.50;;;;;;;;;;5104066;28;20052;-77
2023/09/02 04:59:29;;;;;;;17.17;15.23;;;;;;;;;;5093416;28;20104;-77
2023/09/02 05:01:55;;;;;;;15.07;13.55;;;;;;;;;;5106787;28;20043;-78
2023/09/02 05:04:21;;;;;;;17.30;15.25;;;;;;;;;;5110621;28;20511;-77
2023/09/02 05:06:48;;;;;;;16.30;14.48;;;;;;;;;;5111237;28;20060;-77
2023/09/02 05:09:14;;;;;;;16.92;15.18;;;;;;;;;;5105591;28;20144;-77
2023/09/02 05:11:40;;;;;;;18.27;16.40;;;;;;;;;;5101966;28;20044;-77
2023/09/02 05:14:06;;;;;;;17.25;15.27;;;;;;;;;;5104280;28;20044;-77
2023/09/02 05:16:32;;;;;;;17.88;14.38;;;;;;;;;;5108587;28;20092;-78
2023/09/02 05:18:58;;;;;;;14.15;12.73;;;;;;;;;;5102682;28;20047;-76
2023/09/02 05:21:24;;;;;;;16.58;13.63;;;;;;;;;;5112658;28;20086;-77
2023/09/02 05:23:52;;;;;;;17.38;14.63;;;;;;;;;;5107328;28;20047;-77
2023/09/02 05:26:19;;;;;;;16.90;14.00;;;;;;;;;;5111628;28;20123;-77
2023/09/02 05:28:45;;;;;;;15.15;12.70;;;;;;;;;;5110619;28;20409;-76
2023/09/02 05:31:11;;;;;;;16.50;14.43;;;;;;;;;;5111755;28;20393;-76
2023/09/02 05:33:37;;;;;;;18.13;14.80;;;;;;;;;;5099269;28;20056;-76
2023/09/02 05:36:03;;;;;;;16.48;14.27;;;;;;;;;;5109951;28;20132;-77
2023/09/02 05:38:30;;;;;;;18.13;15.30;;;;;;;;;;5100433;28;20044;-76
2023/09/02 05:40:56;;;;;;;21.52;17.35;;;;;;;;;;5112493;28;20047;-77
2023/09/02 05:43:24;;;;;;;16.05;14.38;;;;;;;;;;5111735;28;20048;-77
2023/09/02 05:45:50;;;;;;;16.35;13.38;;;;;;;;;;5092950;28;20130;-77
2023/09/02 05:48:16;;;;;;;19.08;13.82;;;;;;;;;;5105317;28;20121;-77
2023/09/02 05:50:43;;;;;;;17.00;13.82;;;;;;;;;;5109605;28;20071;-77
2023/09/02 05:53:09;;;;;;;14.25;12.70;;;;;;;;;;5089543;28;20691;-77
2023/09/02 05:55:35;;;;;;;14.38;12.38;;;;;;;;;;5105909;28;20094;-77
2023/09/02 05:58:01;;;;;;;15.15;13.52;;;;;;;;;;5100085;28;20048;-77
2023/09/02 06:00:27;;;;;;;16.52;13.25;;;;;;;;;;5109356;28;20036;-77
2023/09/02 06:02:53;;;;;;;15.80;13.75;;;;;;;;;;5085322;28;20040;-78
2023/09/02 06:05:19;;;;;;;17.85;14.57;;;;;;;;;;5109120;28;20074;-77
2023/09/02 06:07:45;;;;;;;16.10;14.50;;;;;;;;;;5106443;28;20061;-77
2023/09/02 06:10:12;;;;;;;18.27;16.08;;;;;;;;;;5111820;28;20059;-76
2023/09/02 06:12:38;;;;;;;19.05;15.90;;;;;;;;;;5105854;28;20086;-76
2023/09/02 06:15:04;;;;;;;17.70;15.68;;;;;;;;;;5106459;28;20055;-76
2023/09/02 06:17:31;;;;;;;21.90;16.30;;;;;;;;;;5098012;28;20458;-76
2023/09/02 06:20:00;;;;;;;19.77;16.27;;;;;;;;;;5091618;28;20482;-76
2023/09/02 06:22:27;;;;;;;20.10;18.00;;;;;;;;;;5100395;28;20054;-76
2023/09/02 06:24:54;;;;;;;22.50;19.58;;;;;;;;;;5093748;28;20080;-76
2023/09/02 06:27:21;;;;;;;20.08;17.98;;;;;;;;;;5107375;28;20036;-76
2023/09/02 06:29:47;;;;;;;21.13;18.60;;;;;;;;;;5104654;28;20047;-76
2023/09/02 06:32:13;;;;;;;21.83;18.73;;;;;;;;;;5104362;28;20067;-76
2023/09/02 06:34:39;;;;;;;20.05;17.95;;;;;;;;;;5096165;28;20391;-76
2023/09/02 06:37:05;;;;;;;18.25;16.40;;;;;;;;;;5111070;28;20044;-76
2023/09/02 06:39:31;;;;;;;21.45;19.10;;;;;;;;;;5107377;28;21091;-76
2023/09/02 06:41:57;;;;;;;22.88;18.58;;;;;;;;;;5116113;28;20180;-76
2023/09/02 06:44:23;;;;;;;21.70;17.58;;;;;;;;;;5114298;28;20561;-76
2023/09/02 06:46:49;;;;;;;19.65;17.60;;;;;;;;;;5094530;28;20040;-76
2023/09/02 06:49:15;;;;;;;22.02;19.73;;;;;;;;;;5111945;28;20055;-76
2023/09/02 06:51:41;;;;;;;18.98;16.42;;;;;;;;;;5114347;28;20036;-77
2023/09/02 06:54:07;;;;;;;21.08;17.70;;;;;;;;;;5115722;28;20448;-76
2023/09/02 06:56:33;;;;;;;21.75;18.83;;;;;;;;;;5115814;28;20054;-76
2023/09/02 06:58:59;;;;;;;21.10;18.80;;;;;;;;;;5114912;28;20100;-77
2023/09/02 07:01:26;;;;;;;26.33;21.98;;;;;;;;;;5114713;28;20059;-77
2023/09/02 07:03:55;;;;;;;23.88;21.38;;;;;;;;;;5111286;28;20047;-77
2023/09/02 07:06:21;;;;;;;25.48;21.98;;;;;;;;;;5112076;28;20036;-77
2023/09/02 07:08:47;;;;;;;25.05;22.42;;;;;;;;;;5103141;28;20472;-77
2023/09/02 07:11:13;;;;;;;24.88;21.88;;;;;;;;;;5094914;28;20040;-76
2023/09/02 07:13:45;;;;;;;27.98;24.13;;;;;;;;;;5100354;28;20044;-76
2023/09/02 07:16:11;;;;;;;24.35;21.75;;;;;;;;;;5092910;28;20047;-76
2023/09/02 07:18:37;;;;;;;25.77;22.98;;;;;;;;;;5102802;28;20055;-76
2023/09/02 07:21:04;;;;;;;26.40;23.60;;;;;;;;;;5097070;28;20117;-76
2023/09/02 07:23:31;;;;;;;25.77;23.08;;;;;;;;;;5115391;28;20047;-76
2023/09/02 07:25:59;;;;;;;28.27;24.85;;;;;;;;;;5114942;28;20048;-75
2023/09/02 07:28:25;;;;;;;27.45;23.80;;;;;;;;;;5115349;28;20497;-78
2023/09/02 07:30:51;;;;;;;30.55;26.83;;;;;;;;;;5113404;28;20051;-77
2023/09/02 07:33:18;;;;;;;35.28;28.75;;;;;;;;;;5104396;28;20039;-77
2023/09/02 07:35:44;;;;;;;32.00;28.52;;;;;;;;;;5114016;28;20043;-78
2023/09/02 07:38:10;;;;;;;33.00;29.45;;;;;;;;;;5116097;27;20165;-78
2023/09/02 07:40:36;;;;;;;22.88;20.23;;;;;;;;;;5104849;28;20043;-77
2023/09/02 07:43:03;;;;;;;27.77;24.40;;;;;;;;;;5110057;27;20048;-77
2023/09/02 07:45:29;;;;;;;28.20;25.15;;;;;;;;;;5116402;27;20158;-77
2023/09/02 07:47:55;;;;;;;28.63;25.65;;;;;;;;;;5114442;28;20097;-77
2023/09/02 07:50:21;;;;;;;28.67;25.60;;;;;;;;;;5114007;28;20052;-77
2023/09/02 07:52:48;;;;;;;28.55;25.60;;;;;;;;;;5112020;28;20046;-78
2023/09/02 07:55:14;;;;;;;27.60;24.60;;;;;;;;;;5111289;28;20071;-78
2023/09/02 07:57:40;;;;;;;25.35;22.55;;;;;;;;;;5114611;28;20047;-77
2023/09/02 08:00:08;;;;;;;31.75;27.05;;;;;;;;;;5110393;28;20052;-77
2023/09/02 08:02:34;;;;;;;29.65;26.55;;;;;;;;;;5114140;27;20051;-78
2023/09/02 08:05:00;;;;;;;30.83;27.52;;;;;;;;;;5114814;28;20047;-77
2023/09/02 08:07:26;;;;;;;30.73;26.45;;;;;;;;;;5090356;28;20052;-76
2023/09/02 08:09:52;;;;;;;27.73;24.23;;;;;;;;;;5092688;28;20102;-77
2023/09/02 08:12:18;;;;;;;29.63;26.52;;;;;;;;;;5092676;28;20082;-77
2023/09/02 08:14:44;;;;;;;30.88;25.85;;;;;;;;;;5088184;28;20516;-77
2023/09/02 08:17:10;;;;;;;31.83;28.42;;;;;;;;;;5086993;28;20105;-76
2023/09/02 08:19:36;;;;;;;29.80;25.25;;;;;;;;;;5094133;28;20052;-77
2023/09/02 08:22:02;;;;;;;30.90;26.50;;;;;;;;;;5093763;28;20152;-77
2023/09/02 08:24:29;;;;;;;28.58;25.50;;;;;;;;;;5078765;28;20044;-76
2023/09/02 08:26:55;;;;;;;28.15;25.25;;;;;;;;;;5074677;28;20135;-77
2023/09/02 08:29:21;;;;;;;27.90;24.75;;;;;;;;;;5092517;28;20075;-77
2023/09/02 08:31:52;;;;;;;29.05;25.08;;;;;;;;;;5093671;28;20117;-78
2023/09/02 08:34:19;;;;;;;23.88;21.35;;;;;;;;;;5094250;28;20039;-78
2023/09/02 08:36:45;;;;;;;26.17;23.33;;;;;;;;;;5092017;28;20068;-78
2023/09/02 08:39:11;;;;;;;27.27;23.30;;;;;;;;;;5095221;28;20062;-76
2023/09/02 08:41:39;;;;;;;23.63;20.95;;;;;;;;;;5093077;28;20048;-75
2023/09/02 08:44:05;;;;;;;28.90;24.60;;;;;;;;;;5092939;28;20044;-75
2023/09/02 08:46:32;;;;;;;26.40;22.33;;;;;;;;;;5079988;28;20139;-75
2023/09/02 08:48:59;;;;;;;24.45;20.00;;;;;;;;;;5073630;28;20048;-76
2023/09/02 08:51:26;;;;;;;30.48;22.95;;;;;;;;;;5091344;28;20115;-76
2023/09/02 08:53:54;;;;;;;29.60;22.55;;;;;;;;;;5091812;28;20470;-77
2023/09/02 08:56:20;;;;;;;27.77;21.55;;;;;;;;;;5088022;28;20044;-78
2023/09/02 08:58:47;;;;;;;31.08;21.17;;;;;;;;;;5072940;28;20040;-77
2023/09/02 09:01:18;;;;;;;23.73;20.38;;;;;;;;;;5072836;28;20382;-79
2023/09/02 09:03:46;;;;;;;23.13;18.75;;;;;;;;;;5072934;28;20056;-78
2023/09/02 09:06:12;;;;;;;22.30;17.40;;;;;;;;;;5076401;28;20037;-77
2023/09/02 09:08:39;;;;;;;23.25;19.10;;;;;;;;;;5107412;28;20052;-77
2023/09/02 09:11:07;;;;;;;23.38;18.08;;;;;;;;;;5108863;28;20075;-77
2023/09/02 09:13:34;;;;;;;23.02;17.98;;;;;;;;;;5113259;28;20044;-77
2023/09/02 09:16:00;;;;;;;21.38;17.33;;;;;;;;;;5112340;28;20382;-78
2023/09/02 09:18:26;;;;;;;24.85;17.67;;;;;;;;;;5113180;28;20047;-78
2023/09/02 09:20:53;;;;;;;22.20;16.95;;;;;;;;;;5113200;28;20043;-78
2023/09/02 09:23:19;;;;;;;27.30;19.13;;;;;;;;;;5101973;28;20051;-78
2023/09/02 09:25:49;;;;;;;26.15;18.02;;;;;;;;;;5092764;28;20725;-77
2023/09/02 09:28:15;;;;;;;22.75;16.75;;;;;;;;;;5092817;28;20056;-77
2023/09/02 09:30:41;;;;;;;23.10;17.02;;;;;;;;;;5092769;28;20040;-77
2023/09/02 09:33:07;;;;;;;23.60;16.10;;;;;;;;;;5102365;28;20097;-77
2023/09/02 09:35:34;;;;;;;24.27;17.45;;;;;;;;;;5092596;28;20055;-78
2023/09/02 09:38:00;;;;;;;23.38;15.82;;;;;;;;;;5092337;28;20093;-79
2023/09/02 09:40:34;;;;;;;24.20;16.15;;;;;;;;;;5105089;28;20536;-78
2023/09/02 09:43:01;;;;;;;22.33;16.30;;;;;;;;;;5102007;28;20036;-77
2023/09/02 09:45:28;;;;;;;20.33;14.82;;;;;;;;;;5096675;28;20039;-77
2023/09/02 09:47:58;;;;;;;20.42;14.55;;;;;;;;;;5098283;28;20398;-77
2023/09/02 09:50:24;;;;;;;21.97;14.87;;;;;;;;;;5094675;28;20090;-77
2023/09/02 09:53:04;;;;;;;22.70;15.35;;;;;;;;;;5110849;28;20098;-77
2023/09/02 09:55:31;;;;;;;17.75;14.40;;;;;;;;;;5112887;28;20048;-78
2023/09/02 09:57:57;;;;;;;20.38;14.05;;;;;;;;;;5106393;28;20047;-77
2023/09/02 10:00:24;;;;;;;21.17;14.60;;;;;;;;;;5074642;28;20063;-78
2023/09/02 10:02:51;;;;;;;20.85;14.85;;;;;;;;;;5086752;28;20126;-77
2023/09/02 10:05:23;;;;;;;24.67;15.30;;;;;;;;;;5112426;28;20047;-77
2023/09/02 10:07:58;;;;;;;19.08;12.93;;;;;;;;;;5115463;28;20059;-77
2023/09/02 10:10:29;;;;;;;21.90;15.93;;;;;;;;;;5077867;28;20082;-77
2023/09/02 10:12:55;;;;;;;18.73;13.55;;;;;;;;;;5097859;28;20653;-78
2023/09/02 10:15:25;;;;;;;17.13;12.07;;;;;;;;;;5116260;28;20118;-77
2023/09/02 10:18:01;;;;;;;15.35;10.50;;;;;;;;;;5118075;28;20489;-78
2023/09/02 10:20:31;;;;;;;18.00;12.57;;;;;;;;;;5119769;28;20047;-78
2023/09/02 10:23:02;;;;;;;20.08;11.73;;;;;;;;;;5115688;28;20375;-77
2023/09/02 10:25:30;;;;;;;17.70;11.60;;;;;;;;;;5097233;28;20393;-77
2023/09/02 10:28:06;;;;;;;16.95;10.85;;;;;;;;;;5095885;28;20394;-77
2023/09/02 10:30:36;;;;;;;19.48;12.05;;;;;;;;;;5104531;28;20044;-77
2023/09/02 10:33:22;;;;;;;15.47;11.30;;;;;;;;;;5096531;28;20050;-77
2023/09/02 10:35:57;;;;;;;17.70;11.00;;;;;;;;;;5103115;28;20282;-77
2023/09/02 10:38:23;;;;;;;18.77;11.95;;;;;;;;;;5108626;28;20092;-75
2023/09/02 10:40:53;;;;;;;18.13;12.98;;;;;;;;;;5110888;28;20052;-76
2023/09/02 10:43:20;;;;;;;18.27;12.27;;;;;;;;;;5107873;28;20040;-77
2023/09/02 10:45:46;;;;;;;19.80;13.52;;;;;;;;;;5099713;28;20032;-76
2023/09/02 10:48:13;;;;;;;18.73;12.02;;;;;;;;;;5109372;28;20064;-77
2023/09/02 10:50:40;;;;;;;21.77;12.20;;;;;;;;;;5111488;28;20447;-77
2023/09/02 10:53:06;;;;;;;21.52;12.55;;;;;;;;;;5102646;28;20044;-76
2023/09/02 10:55:32;;;;;;;19.35;11.57;;;;;;;;;;5111024;28;20085;-77
2023/09/02 10:57:59;;;;;;;17.02;12.20;;;;;;;;;;5102401;28;20482;-77
2023/09/02 11:00:26;;;;;;;16.80;11.43;;;;;;;;;;5102266;28;20158;-77
2023/09/02 11:02:53;;;;;;;15.43;11.13;;;;;;;;;;5113573;28;20047;-77
2023/09/02 11:05:20;;;;;;;18.27;12.10;;;;;;;;;;5103325;28;20052;-77
2023/09/02 11:07:47;;;;;;;22.02;11.68;;;;;;;;;;5113506;28;20039;-77
2023/09/02 11:10:13;;;;;;;18.35;11.40;;;;;;;;;;5095190;28;20052;-77
2023/09/02 11:12:58;;;;;;;16.90;10.52;;;;;;;;;;5109683;28;20047;-77
2023/09/02 11:15:24;;;;;;;17.60;10.60;;;;;;;;;;5081334;28;20051;-75
2023/09/02 11:17:50;;;;;;;15.55;10.63;;;;;;;;;;5105013;28;20040;-77
2023/09/02 11:20:19;;;;;;;17.40;11.30;;;;;;;;;;5107335;28;20088;-76
2023/09/02 11:22:51;;;;;;;19.08;11.05;;;;;;;;;;5116689;27;20500;-77
2023/09/02 11:25:24;;;;;;;17.77;11.02;;;;;;;;;;5106439;28;20044;-77
2023/09/02 11:27:50;;;;;;;16.70;11.63;;;;;;;;;;5113889;28;20473;-77
2023/09/02 11:30:16;;;;;;;19.05;11.90;;;;;;;;;;5115077;28;20432;-77
2023/09/02 11:32:45;;;;;;;16.90;11.13;;;;;;;;;;5115111;28;20036;-77
2023/09/02 11:35:16;;;;;;;15.60;11.38;;;;;;;;;;5116557;28;20064;-77
2023/09/02 11:37:42;;;;;;;;;;;;;;;;;;5107122;28;20489;-80
2023/09/02 11:40:19;;;;;;;18.00;11.35;;;;;;;;;;5114499;28;19979;-78
2023/09/02 11:42:51;;;;;;;15.38;11.60;;;;;;;;;;5102609;28;20123;-77
2023/09/02 11:45:17;;;;;;;18.70;11.20;;;;;;;;;;5099774;28;20118;-78
2023/09/02 11:47:44;;;;;;;16.35;11.15;;;;;;;;;;5116912;28;20476;-78
2023/09/02 11:50:17;;;;;;;18.38;11.73;;;;;;;;;;5115437;27;20055;-78
2023/09/02 11:52:44;;;;;;;15.85;11.20;;;;;;;;;;5103452;28;20515;-79
2023/09/02 11:55:14;;;;;;;17.42;12.30;;;;;;;;;;5104164;28;20044;-80
2023/09/02 11:57:40;;;;;;;16.83;10.73;;;;;;;;;;5113804;28;20093;-78
2023/09/02 12:00:07;;;;;;;19.00;9.82;;;;;;;;;;5106318;28;20702;-69
2023/09/02 12:02:36;;;;;;;16.05;10.90;;;;;;;;;;5110822;28;20389;-68
2023/09/02 12:05:03;;;;;;;15.52;11.05;;;;;;;;;;5100560;28;20071;-68
2023/09/02 12:07:29;;;;;;;16.98;11.18;;;;;;;;;;5100409;28;20097;-67
2023/09/02 12:09:55;;;;;;;16.25;11.55;;;;;;;;;;5102420;28;20551;-68
2023/09/02 12:12:22;;;;;;;15.98;11.90;;;;;;;;;;5105298;28;20044;-68
2023/09/02 12:14:48;;;;;;;18.20;12.45;;;;;;;;;;5093875;28;20051;-67
2023/09/02 12:17:14;;;;;;;19.70;12.93;;;;;;;;;;5098876;28;20101;-67
2023/09/02 12:19:40;;;;;;;18.48;12.60;;;;;;;;;;5104193;28;20040;-67
2023/09/02 12:22:06;;;;;;;17.27;11.25;;;;;;;;;;5096328;28;20043;-67
2023/09/02 12:24:32;;;;;;;18.75;11.95;;;;;;;;;;5111825;28;20070;-67
2023/09/02 12:26:58;;;;;;;18.85;12.18;;;;;;;;;;5099916;28;20044;-67
2023/09/02 12:29:25;;;;;;;15.63;10.20;;;;;;;;;;5105453;28;20051;-68
2023/09/02 12:32:01;;;;;;;18.60;11.57;;;;;;;;;;5099686;28;20405;-68
2023/09/02 12:34:34;;;;;;;16.63;12.27;;;;;;;;;;5104057;28;20096;-68
2023/09/02 12:37:13;;;;;;;14.90;12.57;;;;;;;;;;5105005;28;20573;-68
2023/09/02 12:39:39;;;;;;;16.17;12.32;;;;;;;;;;5103368;28;20047;-69
2023/09/02 12:42:29;;;;;;;15.18;12.00;;;;;;;;;;5100600;28;20478;-68
2023/09/02 12:44:59;;;;;;;19.70;12.10;;;;;;;;;;5102859;28;20442;-68
2023/09/02 12:47:25;;;;;;;15.97;12.10;;;;;;;;;;5108707;28;20448;-68
2023/09/02 12:49:53;;;;;;;16.38;12.63;;;;;;;;;;5085382;28;20067;-68
2023/09/02 12:52:23;;;;;;;20.15;12.07;;;;;;;;;;5107167;28;20035;-68
2023/09/02 12:54:55;;;;;;;17.38;12.13;;;;;;;;;;5104207;28;20451;-68
2023/09/02 12:57:34;;;;;;;16.20;11.65;;;;;;;;;;5086569;28;20054;-68
2023/09/02 13:00:01;;;;;;;18.40;12.27;;;;;;;;;;5100510;28;20035;-69
2023/09/02 13:02:29;;;;;;;16.95;12.05;;;;;;;;;;5107925;28;20067;-69
2023/09/02 13:04:57;;;;;;;16.00;12.20;;;;;;;;;;5107840;28;20047;-69
2023/09/02 13:07:23;;;;;;;15.45;11.68;;;;;;;;;;5102900;28;20115;-68
2023/09/02 13:09:49;;;;;;;17.17;11.27;;;;;;;;;;5100857;28;20071;-67
2023/09/02 13:12:15;;;;;;;21.60;11.70;;;;;;;;;;5102618;28;20081;-67
2023/09/02 13:14:44;;;;;;;15.25;10.75;;;;;;;;;;5105162;28;20123;-67
2023/09/02 13:17:11;;;;;;;17.45;11.90;;;;;;;;;;5097191;28;20505;-69
2023/09/02 13:19:37;;;;;;;24.58;11.60;;;;;;;;;;5099694;28;20039;-68
2023/09/02 13:22:03;;;;;;;14.77;11.30;;;;;;;;;;5109981;28;20052;-68
2023/09/02 13:24:30;;;;;;;18.85;10.50;;;;;;;;;;5082326;28;20517;-68
2023/09/02 13:26:56;;;;;;;17.90;10.73;;;;;;;;;;5101876;28;20398;-68
2023/09/02 13:29:23;;;;;;;16.75;11.77;;;;;;;;;;5108313;28;20074;-68
2023/09/02 13:31:50;;;;;;;16.05;11.30;;;;;;;;;;5091335;28;20044;-68
2023/09/02 13:34:29;;;;;;;14.75;10.32;;;;;;;;;;5100121;28;20561;-68
2023/09/02 13:37:18;;;;;;;14.88;9.82;;;;;;;;;;5111293;28;20046;-69
2023/09/02 13:39:45;;;;;;;17.08;10.57;;;;;;;;;;5081532;28;20605;-69
2023/09/02 13:42:20;;;;;;;14.63;10.02;;;;;;;;;;5094855;28;20044;-68
2023/09/02 13:44:46;;;;;;;14.75;9.65;;;;;;;;;;5111024;28;20044;-68
2023/09/02 13:47:14;;;;;;;15.55;10.00;;;;;;;;;;5110790;28;20382;-68
2023/09/02 13:49:41;;;;;;;13.30;9.00;;;;;;;;;;5101538;28;20036;-68
2023/09/02 13:52:09;;;;;;;12.45;7.90;;;;;;;;;;5100804;28;20067;-67
2023/09/02 13:54:35;;;;;;;13.85;8.18;;;;;;;;;;5103239;28;20051;-67
2023/09/02 13:57:01;;;;;;;12.35;7.68;;;;;;;;;;5095429;28;20409;-69
2023/09/02 13:59:27;;;;;;;13.77;7.38;;;;;;;;;;5103253;28;20118;-68
2023/09/02 14:01:54;;;;;;;11.40;7.13;;;;;;;;;;5109334;28;20048;-68
2023/09/02 14:04:20;;;;;;;12.27;7.10;;;;;;;;;;5106423;28;20043;-68
2023/09/02 14:06:46;;;;;;;13.68;7.60;;;;;;;;;;5101904;28;20143;-68
2023/09/02 14:09:22;;;;;;;11.55;7.97;;;;;;;;;;5095272;28;20175;-67
2023/09/02 14:11:51;;;;;;;12.73;7.63;;;;;;;;;;5099939;28;20178;-68
2023/09/02 14:14:21;;;;;;;12.57;8.00;;;;;;;;;;5107615;28;20052;-68
2023/09/02 14:16:48;;;;;;;11.90;7.47;;;;;;;;;;5105601;28;20983;-68
2023/09/02 14:19:15;;;;;;;13.48;8.65;;;;;;;;;;5095430;28;20067;-68